Time;durP1;ratioP1;P1;durP2;ratioP2;P2;SDS_P1;SDS_P2;PMS_P1;PMS_P2;Temp;Humidity;BMP_temperature;BMP_pressure;BME280_temperature;BME280_humidity;BME280_pressure;Samples;Min_cycle;Max_cycle;Signal;HPM_P1;HPM_P2
2022/09/22 00:00:17;;;;;;;6.43;4.88;;;8.90;99.90;;;;;;5101013;28;20318;-75
2022/09/22 00:02:42;;;;;;;4.63;4.00;;;8.70;99.90;;;;;;5064356;28;20062;-77
2022/09/22 00:05:14;;;;;;;5.10;3.85;;;8.70;99.90;;;;;;5053907;28;20302;-76
2022/09/22 00:07:39;;;;;;;3.58;2.97;;;8.70;99.90;;;;;;5064732;28;20241;-76
2022/09/22 00:10:08;;;;;;;3.85;2.63;;;8.80;99.90;;;;;;5075387;28;20053;-77
2022/09/22 00:12:35;;;;;;;5.97;2.33;;;8.30;99.90;;;;;;5039735;28;20237;-77
2022/09/22 00:15:03;;;;;;;4.50;3.45;;;8.00;99.90;;;;;;5071230;28;20039;-77
2022/09/22 00:17:30;;;;;;;6.07;3.47;;;8.00;99.90;;;;;;5081348;28;20063;-75
2022/09/22 00:19:56;;;;;;;5.57;3.55;;;8.10;99.90;;;;;;5053666;28;20316;-76
2022/09/22 00:22:21;;;;;;;19.30;10.65;;;8.00;99.90;;;;;;5071641;28;20074;-75
2022/09/22 00:24:47;;;;;;;22.08;11.43;;;8.10;99.90;;;;;;5065667;28;20403;-77
2022/09/22 00:27:13;;;;;;;23.77;12.32;;;8.10;99.90;;;;;;5035408;28;20050;-75
2022/09/22 00:29:38;;;;;;;16.85;10.45;;;8.00;99.90;;;;;;5077526;28;20051;-75
2022/09/22 00:32:04;;;;;;;13.85;6.30;;;9.10;99.90;;;;;;5071534;28;20039;-75
2022/09/22 00:34:30;;;;;;;7.47;4.55;;;8.10;99.90;;;;;;5071217;28;20238;-76
2022/09/22 00:36:56;;;;;;;8.00;5.03;;;8.60;99.90;;;;;;5054591;28;20158;-76
2022/09/22 00:39:21;;;;;;;6.57;5.00;;;8.80;99.90;;;;;;5057874;28;20075;-75
2022/09/22 00:41:50;;;;;;;8.50;5.28;;;9.00;99.90;;;;;;5073919;28;20031;-75
2022/09/22 00:44:57;;;;;;;8.25;4.93;;;9.20;99.90;;;;;;5074954;28;20032;-76
2022/09/22 00:47:34;;;;;;;8.10;4.68;;;9.30;99.90;;;;;;5052853;28;20040;-76
2022/09/22 00:50:03;;;;;;;8.00;5.13;;;9.30;99.90;;;;;;5070077;28;20036;-77
2022/09/22 00:52:42;;;;;;;5.97;5.20;;;9.40;99.90;;;;;;5073042;28;20570;-76
2022/09/22 00:55:14;;;;;;;5.15;4.60;;;9.40;99.90;;;;;;5066926;28;20210;-76
2022/09/22 00:57:41;;;;;;;9.50;4.25;;;9.10;99.90;;;;;;5090277;28;20032;-77
2022/09/22 01:00:09;;;;;;;4.47;3.70;;;9.00;99.90;;;;;;5089432;28;20036;-76
2022/09/22 01:02:35;;;;;;;5.20;3.40;;;8.60;99.90;;;;;;5087909;28;20024;-77
2022/09/22 01:05:00;;;;;;;6.15;3.83;;;8.30;99.90;;;;;;5075335;28;20251;-76
2022/09/22 01:07:28;;;;;;;7.18;3.97;;;8.00;99.90;;;;;;5057130;28;20036;-76
2022/09/22 01:09:55;;;;;;;7.07;3.85;;;8.00;99.90;;;;;;5085539;28;20040;-77
2022/09/22 01:12:23;;;;;;;5.57;3.60;;;8.00;99.90;;;;;;5077892;28;20035;-76
2022/09/22 01:14:55;;;;;;;5.88;3.95;;;8.00;99.90;;;;;;5083614;28;20063;-76
2022/09/22 01:17:43;;;;;;;8.32;3.80;;;8.10;99.90;;;;;;5093478;28;20124;-77
2022/09/22 01:20:24;;;;;;;5.53;3.55;;;7.90;99.90;;;;;;5075626;28;20325;-76
2022/09/22 01:23:18;;;;;;;4.88;3.83;;;8.00;99.90;;;;;;5068803;28;20039;-77
2022/09/22 01:26:11;;;;;;;5.95;3.90;;;8.00;99.90;;;;;;5095308;28;20234;-76
2022/09/22 01:28:59;;;;;;;6.88;3.80;;;8.10;99.90;;;;;;5067011;28;20345;-75
2022/09/22 01:31:37;;;;;;;7.20;3.45;;;8.10;99.90;;;;;;5085612;28;20111;-77
2022/09/22 01:34:05;;;;;;;3.72;3.42;;;7.90;99.90;;;;;;5083209;28;20092;-76
2022/09/22 01:36:45;;;;;;;4.93;4.07;;;7.70;99.90;;;;;;5070621;28;20222;-75
2022/09/22 01:39:19;;;;;;;5.53;3.50;;;7.60;99.90;;;;;;5085722;28;20028;-75
2022/09/22 01:42:03;;;;;;;4.72;3.40;;;7.50;99.90;;;;;;5081196;28;20211;-76
2022/09/22 01:44:50;;;;;;;5.47;3.50;;;7.40;99.90;;;;;;5090200;28;20042;-76
2022/09/22 01:47:39;;;;;;;6.40;3.50;;;7.50;99.90;;;;;;5086938;28;20028;-75
2022/09/22 01:50:21;;;;;;;3.92;3.47;;;7.40;99.90;;;;;;5092114;28;20215;-75
2022/09/22 01:52:47;;;;;;;5.22;3.05;;;7.40;99.90;;;;;;5079083;28;20196;-75
2022/09/22 01:55:30;;;;;;;3.70;3.20;;;7.30;99.90;;;;;;5082876;28;20047;-76
2022/09/22 01:58:04;;;;;;;5.25;3.33;;;7.40;99.90;;;;;;5090888;28;20059;-75
2022/09/22 02:00:31;;;;;;;3.67;2.83;;;7.30;99.90;;;;;;5076063;28;20339;-76
2022/09/22 02:03:00;;;;;;;4.22;2.92;;;7.40;99.90;;;;;;5094531;28;20063;-77
2022/09/22 02:05:35;;;;;;;5.55;3.13;;;7.40;99.90;;;;;;5068066;28;20035;-77
2022/09/22 02:08:08;;;;;;;5.13;3.60;;;7.50;99.90;;;;;;5073492;28;20032;-76
2022/09/22 02:10:41;;;;;;;9.32;3.75;;;7.50;99.90;;;;;;5098582;28;20104;-76
2022/09/22 02:13:07;;;;;;;5.03;3.70;;;7.80;99.90;;;;;;5092144;28;20035;-75
2022/09/22 02:18:46;;;;;;;7.35;4.30;;;8.10;99.90;;;;;;5098999;28;20040;-76
2022/09/22 02:21:16;;;;;;;4.97;4.00;;;8.20;99.90;;;;;;5071505;28;20306;-76
2022/09/22 02:23:45;;;;;;;8.68;3.65;;;8.30;99.90;;;;;;5090624;28;20032;-75
2022/09/22 02:26:22;;;;;;;5.53;3.63;;;8.40;99.90;;;;;;5093506;28;20222;-76
2022/09/22 02:28:52;;;;;;;7.93;3.97;;;8.40;99.90;;;;;;5080982;28;20055;-75
2022/09/22 02:31:18;;;;;;;5.57;3.70;;;8.30;99.90;;;;;;5083502;28;20047;-76
2022/09/22 02:33:44;;;;;;;5.57;3.30;;;8.20;99.90;;;;;;5067548;28;20020;-75
2022/09/22 02:36:41;;;;;;;6.35;3.40;;;8.00;99.90;;;;;;5072178;28;20393;-77
2022/09/22 02:39:19;;;;;;;3.45;2.55;;;7.90;99.90;;;;;;5080411;28;20028;-76
2022/09/22 02:41:50;;;;;;;3.90;2.50;;;7.70;99.90;;;;;;5101561;28;20025;-76
2022/09/22 02:44:29;;;;;;;4.25;2.60;;;7.60;99.90;;;;;;5069407;28;20071;-75
2022/09/22 02:47:03;;;;;;;4.45;2.30;;;7.50;99.90;;;;;;5071870;28;20036;-76
2022/09/22 02:49:29;;;;;;;3.20;2.20;;;7.50;99.90;;;;;;5091125;28;20104;-75
2022/09/22 02:51:55;;;;;;;3.50;2.35;;;7.60;99.90;;;;;;5049858;28;20312;-75
2022/09/22 02:54:21;;;;;;;6.32;3.20;;;7.60;99.90;;;;;;5075295;28;20047;-75
2022/09/22 02:56:47;;;;;;;5.72;3.03;;;7.60;99.90;;;;;;5084054;28;20027;-76
2022/09/22 02:59:13;;;;;;;6.93;3.05;;;7.60;99.90;;;;;;5098209;28;20264;-74
2022/09/22 03:01:39;;;;;;;7.03;3.10;;;8.80;99.90;;;;;;5098299;28;20044;-74
2022/09/22 03:04:04;;;;;;;7.13;3.63;;;7.80;99.90;;;;;;5079639;28;20036;-75
2022/09/22 03:06:57;;;;;;;8.18;3.88;;;7.90;99.90;;;;;;5070771;28;20103;-75
2022/09/22 03:09:22;;;;;;;6.25;3.42;;;8.00;99.90;;;;;;5081169;28;20020;-74
2022/09/22 03:11:48;;;;;;;5.30;3.55;;;8.10;99.90;;;;;;5081169;28;20287;-74
2022/09/22 03:14:14;;;;;;;6.70;3.13;;;8.20;99.90;;;;;;5113733;28;20046;-75
2022/09/22 03:16:45;;;;;;;5.18;2.92;;;8.00;99.90;;;;;;5067837;28;20206;-74
2022/09/22 03:19:11;;;;;;;6.07;3.10;;;8.30;99.90;;;;;;5072796;28;20067;-75
2022/09/22 03:21:37;;;;;;;7.03;3.35;;;8.10;99.90;;;;;;5082793;28;20035;-74
2022/09/22 03:24:03;;;;;;;6.45;3.25;;;8.10;99.90;;;;;;5079507;28;20174;-75
2022/09/22 03:26:28;;;;;;;5.22;3.38;;;8.20;99.90;;;;;;5075151;28;20028;-75
2022/09/22 03:28:54;;;;;;;7.25;4.35;;;8.20;99.90;;;;;;5085977;28;20359;-75
2022/09/22 03:31:20;;;;;;;5.15;3.40;;;8.10;99.90;;;;;;5077294;28;20062;-76
2022/09/22 03:37:59;;;;;;;3.85;3.35;;;8.90;99.90;;;;;;5066195;28;20048;-76
2022/09/22 03:41:03;;;;;;;4.68;3.53;;;7.30;99.90;;;;;;5089069;28;20044;-75
2022/09/22 03:51:26;;;;;;;4.60;3.97;;;8.10;99.90;;;;;;5094627;28;20116;-77
2022/09/22 03:54:09;;;;;;;6.03;4.15;;;7.30;99.90;;;;;;5052491;28;20040;-77
2022/09/22 03:56:40;;;;;;;6.90;4.00;;;8.10;99.90;;;;;;5041277;28;20167;-76
2022/09/22 03:59:05;;;;;;;6.70;4.03;;;8.10;99.90;;;;;;5071483;28;20032;-76
2022/09/22 04:01:32;;;;;;;5.55;3.88;;;8.20;99.90;;;;;;5073635;28;20028;-74
2022/09/22 04:03:58;;;;;;;5.53;3.55;;;8.10;99.90;;;;;;5038592;28;20020;-74
2022/09/22 04:06:23;;;;;;;6.47;4.03;;;8.00;99.90;;;;;;5058416;28;20371;-74
2022/09/22 04:08:49;;;;;;;5.97;3.75;;;8.00;99.90;;;;;;5090176;28;20066;-75
2022/09/22 04:11:15;;;;;;;6.20;4.00;;;8.10;99.90;;;;;;5060247;28;20039;-75
2022/09/22 04:13:40;;;;;;;4.40;3.45;;;9.40;99.90;;;;;;5075761;28;20043;-75
2022/09/22 04:16:06;;;;;;;5.10;3.88;;;8.00;99.90;;;;;;5082144;28;20371;-75
2022/09/22 04:18:32;;;;;;;6.50;3.83;;;8.10;99.90;;;;;;5080914;28;20035;-76
2022/09/22 04:20:58;;;;;;;6.93;3.40;;;7.80;99.90;;;;;;5068487;28;20024;-75
2022/09/22 04:23:25;;;;;;;9.23;3.58;;;7.90;99.90;;;;;;5096353;28;20097;-74
2022/09/22 04:25:51;;;;;;;8.15;4.15;;;7.90;99.90;;;;;;5082148;28;20380;-74
2022/09/22 04:28:17;;;;;;;4.50;3.92;;;7.80;99.90;;;;;;5094514;28;22042;-75
2022/09/22 04:30:43;;;;;;;4.00;3.50;;;7.70;99.90;;;;;;5068451;28;20028;-75
2022/09/22 04:33:09;;;;;;;7.93;3.65;;;7.70;99.90;;;;;;5100657;28;20051;-74
2022/09/22 04:35:35;;;;;;;5.68;4.03;;;7.70;99.90;;;;;;5077144;28;20199;-75
2022/09/22 04:38:01;;;;;;;7.35;3.22;;;7.80;99.90;;;;;;5083490;28;20047;-76
2022/09/22 04:40:27;;;;;;;4.50;4.10;;;7.80;99.90;;;;;;5100931;28;20318;-74
2022/09/22 04:42:53;;;;;;;5.35;3.63;;;7.90;99.90;;;;;;5078883;28;20032;-75
2022/09/22 04:45:19;;;;;;;5.18;3.70;;;8.00;99.90;;;;;;5089980;28;20065;-75
2022/09/22 04:47:50;;;;;;;5.55;3.60;;;7.80;99.90;;;;;;5083748;28;20047;-75
2022/09/22 04:50:18;;;;;;;6.50;3.22;;;8.70;99.90;;;;;;5083409;28;20069;-75
2022/09/22 04:52:45;;;;;;;7.07;3.63;;;7.90;99.90;;;;;;5068181;28;20051;-75
2022/09/22 04:55:10;;;;;;;3.88;3.08;;;7.70;99.90;;;;;;5092720;28;20318;-75
2022/09/22 04:57:36;;;;;;;3.60;2.00;;;7.50;99.90;;;;;;5086356;28;20036;-74
2022/09/22 05:00:07;;;;;;;3.97;2.22;;;7.20;99.90;;;;;;5083917;28;20094;-76
2022/09/22 05:02:34;;;;;;;5.78;2.35;;;7.00;99.90;;;;;;5100965;28;20028;-74
2022/09/22 05:05:00;;;;;;;2.35;1.90;;;7.00;99.90;;;;;;5095213;28;20043;-75
2022/09/22 05:07:26;;;;;;;2.40;1.50;;;6.90;99.90;;;;;;5085075;28;20063;-74
2022/09/22 05:09:52;;;;;;;5.55;2.20;;;6.80;99.90;;;;;;5082041;28;20028;-73
2022/09/22 05:12:20;;;;;;;3.08;2.25;;;6.80;99.90;;;;;;5098340;28;20103;-77
2022/09/22 05:14:46;;;;;;;2.83;2.40;;;6.80;99.90;;;;;;5067664;28;20028;-78
2022/09/22 05:17:11;;;;;;;4.03;2.53;;;6.90;99.90;;;;;;5034833;28;20022;-74
2022/09/22 05:19:37;;;;;;;5.07;2.40;;;6.80;99.90;;;;;;5065664;28;20024;-78
2022/09/22 05:22:03;;;;;;;4.10;2.17;;;6.80;99.90;;;;;;5093572;28;20034;-76
2022/09/22 05:24:29;;;;;;;2.20;1.98;;;6.70;99.90;;;;;;5075692;28;20038;-76
2022/09/22 05:26:55;;;;;;;6.32;3.03;;;6.60;99.90;;;;;;5092423;28;20036;-73
2022/09/22 05:29:21;;;;;;;4.30;2.28;;;6.60;99.90;;;;;;5068217;28;20085;-78
2022/09/22 05:31:46;;;;;;;2.63;2.15;;;6.50;99.90;;;;;;5083591;28;20301;-74
2022/09/22 05:34:12;;;;;;;1.67;1.58;;;6.50;99.90;;;;;;5067528;28;20032;-73
2022/09/22 05:36:38;;;;;;;1.67;1.30;;;6.50;99.90;;;;;;5095255;28;20044;-74
2022/09/22 05:39:04;;;;;;;1.73;1.63;;;6.40;99.90;;;;;;5100305;28;20036;-76
2022/09/22 05:41:30;;;;;;;1.70;1.50;;;6.40;99.90;;;;;;5076033;28;20247;-73
2022/09/22 05:44:04;;;;;;;1.90;1.70;;;6.40;99.90;;;;;;5096706;28;20070;-76
2022/09/22 05:46:32;;;;;;;2.30;2.00;;;6.50;99.90;;;;;;5076986;28;20020;-76
2022/09/22 05:49:01;;;;;;;2.05;1.85;;;6.50;99.90;;;;;;5052562;28;20252;-74
2022/09/22 05:51:27;;;;;;;2.72;2.10;;;6.60;99.90;;;;;;5080369;28;20496;-75
2022/09/22 05:53:53;;;;;;;3.40;1.90;;;7.50;99.90;;;;;;5083419;28;20059;-74
2022/09/22 05:56:18;;;;;;;2.88;2.10;;;6.70;99.90;;;;;;5081159;28;20028;-75
2022/09/22 05:59:05;;;;;;;4.25;2.72;;;7.80;99.90;;;;;;5050842;28;20028;-76
2022/09/22 06:01:31;;;;;;;6.38;2.60;;;7.00;99.90;;;;;;5093295;28;20028;-73
2022/09/22 06:03:57;;;;;;;3.45;2.88;;;7.20;99.90;;;;;;5098654;28;20051;-75
2022/09/22 06:06:25;;;;;;;4.85;3.40;;;7.60;99.90;;;;;;5074048;28;20039;-76
2022/09/22 06:08:58;;;;;;;5.60;3.75;;;7.50;99.90;;;;;;5052538;28;20312;-74
2022/09/22 06:11:26;;;;;;;5.65;4.53;;;7.80;99.90;;;;;;5079534;28;20301;-74
2022/09/22 06:13:52;;;;;;;10.13;5.47;;;8.00;99.90;;;;;;5080836;28;20044;-74
2022/09/22 06:16:19;;;;;;;6.45;5.75;;;8.50;99.90;;;;;;5060763;28;20891;-74
2022/09/22 06:18:47;;;;;;;10.60;5.82;;;8.60;99.90;;;;;;5062657;28;20030;-75
2022/09/22 06:21:25;;;;;;;6.78;4.85;;;8.90;99.90;;;;;;5078975;28;20028;-74
2022/09/22 06:23:56;;;;;;;4.15;3.60;;;8.90;99.90;;;;;;5088370;28;20196;-75
2022/09/22 06:26:22;;;;;;;7.03;4.60;;;9.00;99.90;;;;;;5073608;28;20382;-75
2022/09/22 06:28:48;;;;;;;6.38;4.30;;;9.10;99.90;;;;;;5091102;28;20043;-75
2022/09/22 06:31:16;;;;;;;5.75;3.72;;;9.10;99.90;;;;;;5069625;28;20031;-75
2022/09/22 06:33:53;;;;;;;6.07;3.05;;;9.00;99.90;;;;;;5057318;28;20311;-75
2022/09/22 06:36:33;;;;;;;5.00;3.20;;;9.00;99.90;;;;;;5056040;28;20040;-76
2022/09/22 06:39:09;;;;;;;5.03;3.25;;;9.00;99.90;;;;;;5073789;28;20114;-78
2022/09/22 06:42:35;;;;;;;4.35;3.17;;;8.90;99.90;;;;;;5079811;28;20244;-78
2022/09/22 06:45:03;;;;;;;;;;;9.00;99.90;;;;;;5065094;28;20293;-75
2022/09/22 06:47:31;;;;;;;5.05;4.30;;;9.10;99.90;;;;;;5097210;28;21380;-74
2022/09/22 06:50:04;;;;;;;9.25;5.93;;;9.20;99.90;;;;;;5083654;28;20039;-76
2022/09/22 06:52:50;;;;;;;14.02;6.38;;;9.30;99.90;;;;;;5099600;28;20098;-75
2022/09/22 06:55:19;;;;;;;10.40;6.53;;;9.60;99.90;;;;;;5047903;28;20033;-76
2022/09/22 06:57:53;;;;;;;9.93;6.50;;;10.00;99.90;;;;;;5050024;28;20091;-73
2022/09/22 07:00:18;;;;;;;8.80;6.70;;;10.00;99.90;;;;;;5081821;28;20031;-73
2022/09/22 07:02:44;;;;;;;8.27;7.25;;;10.10;99.90;;;;;;5049672;28;20027;-74
2022/09/22 07:05:13;;;;;;;9.60;7.00;;;10.10;99.90;;;;;;5034608;28;20039;-74
2022/09/22 07:08:04;;;;;;;8.50;6.18;;;10.20;99.90;;;;;;5051219;28;20050;-74
2022/09/22 07:11:00;;;;;;;9.52;6.43;;;10.20;99.90;;;;;;5082438;28;20107;-74
2022/09/22 07:14:02;;;;;;;9.05;6.28;;;9.10;99.90;;;;;;5085288;28;20255;-75
2022/09/22 07:20:39;;;;;;;8.55;6.35;;;9.30;99.90;;;;;;4985108;28;20062;-75
2022/09/22 07:23:20;;;;;;;10.60;6.82;;;10.70;99.90;;;;;;5100759;28;20028;-74
2022/09/22 07:25:55;;;;;;;8.85;7.20;;;10.70;99.90;;;;;;5077081;28;20036;-74
2022/09/22 07:28:22;;;;;;;8.25;6.28;;;10.70;99.90;;;;;;5053196;28;20032;-74
2022/09/22 07:30:48;;;;;;;12.63;6.72;;;10.80;99.90;;;;;;5057169;28;20051;-74
2022/09/22 07:33:16;;;;;;;9.40;6.05;;;10.90;99.90;;;;;;5088694;28;20032;-74
2022/09/22 07:35:42;;;;;;;10.05;6.50;;;10.80;99.90;;;;;;5081864;28;20043;-73
2022/09/22 07:38:07;;;;;;;9.27;6.25;;;11.00;99.90;;;;;;5071276;28;20032;-74
2022/09/22 07:40:33;;;;;;;9.45;5.90;;;11.10;99.90;;;;;;5057155;28;20043;-75
2022/09/22 07:42:59;;;;;;;7.93;6.47;;;11.20;99.90;;;;;;5088396;28;20047;-75
2022/09/22 07:45:24;;;;;;;7.95;5.93;;;11.20;99.90;;;;;;5080873;28;20215;-76
2022/09/22 07:50:34;;;;;;;7.57;5.80;;;11.50;99.90;;;;;;5083403;28;20060;-76
2022/09/22 07:53:00;;;;;;;8.55;6.20;;;11.50;99.90;;;;;;5054178;28;20032;-75
2022/09/22 07:55:26;;;;;;;10.13;6.32;;;11.80;99.90;;;;;;5068719;28;20036;-75
2022/09/22 07:57:58;;;;;;;8.10;5.75;;;11.90;99.90;;;;;;5054984;28;20024;-76
2022/09/22 08:00:31;;;;;;;10.35;5.90;;;11.70;99.90;;;;;;5072445;28;20395;-75
2022/09/22 08:02:58;;;;;;;7.07;6.18;;;12.00;99.90;;;;;;5075331;28;20232;-75
2022/09/22 08:05:26;;;;;;;8.15;5.70;;;11.90;99.90;;;;;;5091630;28;20044;-75
2022/09/22 08:07:56;;;;;;;7.40;6.18;;;11.80;99.90;;;;;;5090027;28;20250;-76
2022/09/22 08:10:21;;;;;;;10.45;6.90;;;11.90;99.90;;;;;;5091411;28;20043;-76
2022/09/22 08:12:50;;;;;;;9.95;7.15;;;12.10;99.90;;;;;;5077046;28;20020;-76
2022/09/22 08:15:15;;;;;;;10.00;7.00;;;12.20;99.90;;;;;;5087489;28;20249;-77
2022/09/22 08:17:42;;;;;;;10.50;6.50;;;12.30;99.90;;;;;;5052415;28;20058;-76
2022/09/22 08:20:08;;;;;;;8.25;6.40;;;12.30;99.90;;;;;;5059744;28;20097;-76
2022/09/22 08:22:34;;;;;;;6.75;6.05;;;12.50;99.90;;;;;;5059593;28;20087;-77
2022/09/22 08:25:00;;;;;;;11.82;6.78;;;12.60;99.90;;;;;;5091614;28;20336;-76
2022/09/22 08:27:25;;;;;;;10.00;5.97;;;12.50;99.90;;;;;;5041313;28;20036;-76
2022/09/22 08:29:51;;;;;;;7.10;6.10;;;12.50;99.90;;;;;;5056877;28;20111;-77
2022/09/22 08:32:18;;;;;;;7.28;5.38;;;12.70;99.90;;;;;;5068770;28;20040;-76
2022/09/22 08:34:44;;;;;;;8.30;5.43;;;12.80;99.90;;;;;;5055206;28;20099;-76
2022/09/22 08:37:11;;;;;;;12.32;6.28;;;12.90;99.90;;;;;;5051057;28;20102;-76
2022/09/22 08:39:37;;;;;;;6.50;5.38;;;12.80;99.90;;;;;;5056831;28;20058;-76
2022/09/22 08:42:13;;;;;;;8.35;5.63;;;13.10;99.90;;;;;;5057435;28;20027;-76
2022/09/22 08:44:53;;;;;;;8.25;5.57;;;13.20;99.90;;;;;;5116734;27;20024;-77
2022/09/22 08:53:12;;;;;;;6.63;4.88;;;13.30;99.90;;;;;;5086510;28;20219;-76
2022/09/22 08:55:42;;;;;;;7.35;5.78;;;13.40;99.90;;;;;;5068936;28;20206;-76
2022/09/22 08:58:45;;;;;;;8.00;4.40;;;13.50;99.90;;;;;;5056803;28;20044;-77
2022/09/22 09:01:36;;;;;;;10.05;4.55;;;13.50;99.90;;;;;;5105221;28;20070;-77
2022/09/22 09:04:09;;;;;;;6.72;4.90;;;13.70;99.90;;;;;;5106100;28;20066;-76
2022/09/22 09:06:38;;;;;;;6.27;3.73;;;13.80;99.90;;;;;;5104868;28;20047;-76
2022/09/22 09:09:25;;;;;;;7.10;4.07;;;14.00;99.90;;;;;;5067051;28;20390;-77
2022/09/22 09:12:18;;;;;;;7.15;4.35;;;14.00;99.90;;;;;;5086462;28;20298;-76
2022/09/22 09:15:00;;;;;;;6.90;4.15;;;14.00;99.90;;;;;;5085141;28;20059;-77
2022/09/22 09:17:31;;;;;;;7.35;3.97;;;14.20;99.90;;;;;;5067830;28;20095;-77
2022/09/22 09:20:15;;;;;;;10.00;4.47;;;14.30;99.90;;;;;;5108611;28;20086;-76
2022/09/22 09:22:46;;;;;;;8.13;3.78;;;14.40;99.90;;;;;;5086196;28;20200;-77
2022/09/22 09:25:52;;;;;;;4.80;3.60;;;14.50;99.90;;;;;;5069273;28;20032;-77
2022/09/22 09:28:20;;;;;;;6.03;3.55;;;14.60;99.90;;;;;;5001331;28;20232;-77
2022/09/22 09:30:45;;;;;;;3.63;2.58;;;14.70;99.90;;;;;;5069953;28;20039;-77
2022/09/22 09:33:40;;;;;;;6.63;3.40;;;14.70;99.90;;;;;;5083807;28;20070;-77
2022/09/22 09:36:14;;;;;;;7.38;3.10;;;14.90;99.90;;;;;;5085700;28;20234;-78
2022/09/22 09:38:47;;;;;;;4.63;2.70;;;15.20;99.90;;;;;;5068973;28;20222;-78
2022/09/22 09:41:20;;;;;;;2.70;2.30;;;15.20;99.90;;;;;;5069043;28;20111;-79
2022/09/22 09:43:46;;;;;;;5.25;2.63;;;15.30;99.90;;;;;;5084684;28;20036;-77
2022/09/22 09:46:36;;;;;;;5.22;3.15;;;15.50;99.90;;;;;;5085659;28;20103;-76
2022/09/22 09:49:14;;;;;;;3.30;2.53;;;15.80;99.90;;;;;;5085586;28;20043;-76
2022/09/22 09:51:43;;;;;;;6.18;3.33;;;16.20;99.90;;;;;;5085261;28;20067;-76
2022/09/22 09:54:13;;;;;;;5.97;3.03;;;16.20;99.90;;;;;;5081589;28;20039;-79
2022/09/22 09:57:03;;;;;;;5.30;2.70;;;16.10;99.90;;;;;;5081623;28;20028;-76
2022/09/22 10:02:27;;;;;;;4.68;2.40;;;16.40;99.90;;;;;;5081357;28;20028;-77
2022/09/22 10:05:15;;;;;;;4.68;2.80;;;16.80;99.90;;;;;;5084427;28;20040;-77
2022/09/22 10:08:02;;;;;;;4.20;2.45;;;16.90;99.90;;;;;;5085120;28;20044;-78
2022/09/22 10:10:28;;;;;;;4.70;2.35;;;17.30;99.90;;;;;;5068526;28;20036;-78
2022/09/22 10:13:03;;;;;;;4.30;2.88;;;17.40;99.90;;;;;;5067649;28;20032;-76
2022/09/22 10:15:40;;;;;;;4.60;1.90;;;17.30;99.90;;;;;;5063478;28;20064;-77
2022/09/22 10:18:31;;;;;;;5.43;2.00;;;17.40;99.90;;;;;;5064485;28;20028;-75
2022/09/22 10:21:23;;;;;;;3.80;2.03;;;17.30;99.90;;;;;;5048051;28;20044;-77
2022/09/22 10:23:53;;;;;;;4.60;2.00;;;17.30;99.90;;;;;;5050929;28;20086;-76
2022/09/22 10:26:29;;;;;;;4.68;2.08;;;17.30;99.90;;;;;;5083367;28;20040;-77
2022/09/22 10:29:18;;;;;;;5.35;3.30;;;17.50;99.90;;;;;;5068127;28;20329;-77
2022/09/22 10:32:15;;;;;;;5.25;3.47;;;17.40;99.90;;;;;;5084285;28;20031;-77
2022/09/22 10:34:47;;;;;;;5.38;3.17;;;17.30;99.90;;;;;;5066919;28;20215;-77
2022/09/22 10:37:15;;;;;;;4.03;3.05;;;17.40;99.90;;;;;;5084847;28;20048;-77
2022/09/22 10:39:55;;;;;;;4.97;2.90;;;17.40;99.90;;;;;;5067721;28;20330;-77
2022/09/22 10:42:33;;;;;;;4.35;2.35;;;17.70;99.90;;;;;;5084597;28;20032;-76
2022/09/22 10:45:19;;;;;;;5.05;2.88;;;17.60;99.90;;;;;;5083570;28;20047;-77
2022/09/22 10:48:02;;;;;;;3.60;2.03;;;17.70;99.90;;;;;;5067960;28;20028;-77
2022/09/22 10:50:40;;;;;;;5.78;2.15;;;17.70;99.90;;;;;;5067680;28;20035;-78
2022/09/22 10:53:26;;;;;;;2.85;2.05;;;17.80;99.90;;;;;;5067533;28;20367;-77
2022/09/22 10:56:28;;;;;;;3.38;2.00;;;17.60;99.90;;;;;;5065006;28;20031;-77
2022/09/22 10:59:01;;;;;;;3.88;2.20;;;17.50;99.90;;;;;;5063103;28;20048;-77
2022/09/22 11:01:39;;;;;;;4.03;2.15;;;17.40;99.90;;;;;;5067352;28;20035;-77
2022/09/22 11:04:33;;;;;;;5.00;2.90;;;17.40;99.90;;;;;;5084098;28;20039;-77
2022/09/22 11:13:38;;;;;;;7.18;2.50;;;17.20;99.90;;;;;;5083994;28;20208;-76
2022/09/22 11:16:27;;;;;;;3.15;2.10;;;17.20;99.90;;;;;;4978243;28;20260;-77
2022/09/22 11:18:58;;;;;;;5.10;2.15;;;17.10;99.90;;;;;;4952482;28;20038;-77
2022/09/22 11:21:34;;;;;;;6.63;1.90;;;17.40;99.90;;;;;;5044367;28;20203;-77
2022/09/22 11:24:05;;;;;;;5.10;2.08;;;17.50;99.90;;;;;;5067363;28;20206;-78
2022/09/22 11:26:51;;;;;;;4.93;2.15;;;17.50;99.90;;;;;;5083632;28;20028;-77
2022/09/22 11:29:44;;;;;;;3.97;1.80;;;17.20;99.90;;;;;;5082108;28;20036;-80
2022/09/22 11:32:25;;;;;;;5.90;2.42;;;17.10;99.90;;;;;;5083178;28;20032;-78
2022/09/22 11:35:23;;;;;;;2.60;1.73;;;17.30;99.90;;;;;;5065111;28;20028;-77
2022/09/22 11:38:02;;;;;;;2.70;1.90;;;17.50;99.90;;;;;;5060649;28;20318;-77
2022/09/22 11:40:38;;;;;;;5.15;2.42;;;17.40;99.90;;;;;;5079104;28;20044;-77
2022/09/22 11:43:20;;;;;;;4.68;2.47;;;17.00;99.90;;;;;;5063377;28;20044;-78
2022/09/22 11:46:31;;;;;;;4.63;2.58;;;16.90;99.90;;;;;;5063304;28;20041;-76
2022/09/22 11:49:00;;;;;;;4.88;2.80;;;16.90;99.90;;;;;;4983155;28;20351;-77
2022/09/22 11:51:49;;;;;;;2.30;2.03;;;17.00;99.90;;;;;;4971713;28;20329;-76
2022/09/22 11:54:48;;;;;;;5.35;2.40;;;17.10;99.90;;;;;;5034582;28;20045;-77
2022/09/22 11:57:20;;;;;;;3.85;2.55;;;17.10;99.90;;;;;;5031726;28;20036;-76
2022/09/22 12:00:04;;;;;;;3.72;2.20;;;17.00;99.90;;;;;;5045503;28;20088;-76
2022/09/22 12:02:48;;;;;;;3.25;2.35;;;17.00;99.90;;;;;;5058510;28;20028;-76
2022/09/22 12:05:26;;;;;;;4.85;2.65;;;16.80;99.90;;;;;;5081456;28;20047;-77
2022/09/22 12:08:03;;;;;;;4.60;2.70;;;16.90;99.90;;;;;;5059956;28;20028;-77
2022/09/22 12:10:39;;;;;;;3.40;2.50;;;17.10;99.90;;;;;;5045738;28;20032;-77
2022/09/22 12:13:14;;;;;;;3.47;2.50;;;17.30;99.90;;;;;;5063415;28;20036;-77
2022/09/22 12:16:01;;;;;;;4.57;3.13;;;17.40;99.90;;;;;;5063963;28;20051;-77
2022/09/22 12:18:33;;;;;;;4.82;3.30;;;17.30;99.90;;;;;;5075285;28;20214;-76
2022/09/22 12:21:37;;;;;;;3.78;3.05;;;17.20;99.90;;;;;;5063420;28;20337;-75
2022/09/22 12:24:08;;;;;;;7.65;3.67;;;17.20;99.90;;;;;;5063401;28;20036;-78
2022/09/22 12:26:37;;;;;;;5.35;3.53;;;17.20;99.90;;;;;;5045400;28;20062;-76
2022/09/22 12:29:21;;;;;;;6.95;3.92;;;17.20;99.90;;;;;;5069900;28;20041;-77
2022/09/22 12:31:50;;;;;;;5.93;3.33;;;17.20;99.90;;;;;;5065195;28;20032;-77
2022/09/22 12:34:36;;;;;;;5.47;3.70;;;17.20;99.90;;;;;;5066529;28;20062;-76
2022/09/22 12:37:11;;;;;;;4.78;3.60;;;17.10;99.90;;;;;;5070564;28;20056;-76
2022/09/22 12:39:44;;;;;;;5.38;4.07;;;17.10;99.90;;;;;;5065025;28;20033;-76
2022/09/22 12:42:34;;;;;;;5.60;3.85;;;17.10;99.90;;;;;;5072368;28;20300;-76
2022/09/22 12:45:16;;;;;;;9.00;4.13;;;17.20;99.90;;;;;;5084834;28;20085;-75
2022/09/22 12:47:49;;;;;;;3.83;3.10;;;17.40;99.90;;;;;;5073984;28;20062;-76
2022/09/22 12:50:23;;;;;;;4.63;3.30;;;17.50;99.90;;;;;;5052948;28;20064;-77
2022/09/22 12:52:49;;;;;;;8.63;3.72;;;17.50;99.90;;;;;;5046623;28;20110;-77
2022/09/22 12:55:27;;;;;;;7.70;3.55;;;17.40;99.90;;;;;;5054859;28;20032;-76
2022/09/22 12:57:54;;;;;;;6.80;3.45;;;17.40;99.90;;;;;;5074356;28;20032;-76
2022/09/22 13:00:36;;;;;;;4.03;3.40;;;17.20;99.90;;;;;;5058300;28;20302;-76
2022/09/22 13:03:24;;;;;;;5.65;3.85;;;17.20;99.90;;;;;;5049767;28;20032;-76
2022/09/22 13:05:56;;;;;;;5.55;3.28;;;17.30;99.90;;;;;;5066306;28;20040;-76
2022/09/22 13:08:31;;;;;;;3.22;2.92;;;17.40;99.90;;;;;;5048952;28;20201;-77
2022/09/22 13:11:03;;;;;;;5.88;4.13;;;17.40;99.90;;;;;;5046924;28;20041;-77
2022/09/22 13:13:28;;;;;;;6.45;3.40;;;17.40;99.90;;;;;;5075102;28;20066;-77
2022/09/22 13:15:56;;;;;;;6.15;3.17;;;17.30;99.90;;;;;;5086205;28;20281;-76
2022/09/22 13:18:45;;;;;;;7.18;3.17;;;17.20;99.90;;;;;;5069654;28;20367;-78
2022/09/22 13:21:13;;;;;;;6.07;2.42;;;17.10;99.90;;;;;;5056621;28;20032;-77
2022/09/22 13:23:57;;;;;;;4.40;2.95;;;17.10;99.90;;;;;;5045140;28;20037;-75
2022/09/22 13:26:33;;;;;;;5.65;3.22;;;17.20;99.90;;;;;;5042494;28;20051;-77
2022/09/22 13:29:04;;;;;;;8.05;4.30;;;17.40;99.90;;;;;;5066310;28;20035;-77
2022/09/22 13:31:51;;;;;;;6.60;3.83;;;17.40;99.90;;;;;;5042049;28;20033;-76
2022/09/22 13:34:34;;;;;;;6.13;3.42;;;17.30;99.90;;;;;;5057316;28;20272;-77
2022/09/22 13:37:10;;;;;;;4.45;3.40;;;17.20;99.90;;;;;;5065743;28;20084;-77
2022/09/22 13:39:41;;;;;;;6.95;3.50;;;17.30;99.90;;;;;;5048975;28;20036;-76
2022/09/22 13:42:31;;;;;;;6.10;3.50;;;17.30;99.90;;;;;;5062368;28;20028;-77
2022/09/22 13:45:08;;;;;;;6.88;3.30;;;17.20;99.90;;;;;;5077852;28;20218;-77
2022/09/22 13:47:35;;;;;;;4.20;3.00;;;17.20;99.90;;;;;;5069842;28;20043;-77
2022/09/22 13:50:04;;;;;;;5.18;3.47;;;17.30;99.90;;;;;;5067309;28;20032;-77
2022/09/22 13:52:33;;;;;;;5.40;3.88;;;17.20;99.90;;;;;;5052096;28;20032;-76
2022/09/22 13:55:14;;;;;;;5.75;3.60;;;17.00;99.90;;;;;;5065429;28;20102;-77
2022/09/22 13:57:41;;;;;;;4.72;3.80;;;17.00;99.90;;;;;;5049094;28;20394;-77
2022/09/22 14:00:16;;;;;;;6.80;3.80;;;17.00;99.90;;;;;;5046410;28;20067;-76